Skip Navigation LinksHome page > Tools > METAR decoder Skip Navigation Links

METAR decoder

Settings

METAR

Chicago O'Hare Intl, Chicago

For information only: do not use for flight planning or navigation.
Latest weather
Observation time Friday, February 27, 2015 6:51 PM CST
Local time Friday, February 27, 2015 7:54 PM CST
Flight conditions Visual Meteorological Conditions
Winds
Wind direction West-Southwest (240°)
Wind speed 8 mph
Visibility 10 mi.
Sky condition
Ceiling unlimited
Cloud layer few clouds 20,000 ft.
Temperature 8°F
Dewpoint -5°F
Altimeter 30.63 in.Hg
Derived measurements
Relative humidity 54%
Wind chill -4°F
Density altitude -3695 ft.
Sea-level pressure 30.68 in.Hg
Remarks
Automated weather observing station with precipitation discriminator.
METAR KORD 280051Z 24007KT 10SM FEW200 M13/M21 A3063 RMK AO2 SLP390 T11331206

InnerDrive.Weather 4.0.5505.0 Release CLR 4.0.30319.34014
Copyright ©2015 Inner Drive Technology. All rights reserved. Portions Copyright ©1986-2015 David Braverman.

Find weather

Site navigation


Skip Navigation Links

Place info

Page info

PayPal - The safer, easier way to pay online!

Return home.

Copyright ©2015 Inner Drive Technology. Purveyors of fine, hand-crafted computer software. Page printed 2015-02-28T01:54:58 UTC.